CST,Max TemperatureF,Mean TemperatureF,Min TemperatureF,Max Dew PointF,MeanDew PointF,Min DewpointF,Max Humidity, Mean Humidity, Min Humidity, Max Sea Level PressureIn, Mean Sea Level PressureIn, Min Sea Level PressureIn, Max VisibilityMiles, Mean VisibilityMiles, Min VisibilityMiles, Max Wind SpeedMPH, Mean Wind SpeedMPH, Max Gust SpeedMPH,PrecipitationIn, CloudCover, Events, WindDirDegrees
2013-2-1,3,-5,-13,-2,-9,-20,85,72,52,30.38,30.19,30.04,10,5,1,12,6,,0.03,5,Snow,105
2013-2-2,10,5,0,7,0,-7,85,75,61,30.24,30.08,29.96,10,6,2,8,4,,0.00,6,Snow,268
2013-2-3,12,8,3,7,3,-3,85,73,61,30.13,30.03,29.96,10,7,1,14,7,,0.01,7,Snow,313
2013-2-4,14,8,1,10,2,-6,87,69,54,30.12,29.97,29.72,10,7,1,13,5,,0.01,6,Snow,166
2013-2-5,28,18,5,22,14,0,88,76,53,30.12,29.84,29.63,10,8,1,12,8,16,0.00,5,Snow,264
2013-2-6,24,14,3,18,11,0,88,81,74,30.13,30.05,29.97,10,6,0,10,4,,0.04,5,Fog-Snow,117
2013-2-7,27,25,23,21,20,19,93,81,72,30.28,30.13,30.01,10,6,2,13,8,18,0.00,8,Rain,10
2013-2-8,25,17,9,19,13,7,96,72,55,30.41,30.32,30.23,10,10,9,14,6,,0.00,3,,107
2013-2-9,30,28,25,27,24,19,89,83,78,30.23,30.06,29.92,10,7,4,17,13,24,0.00,8,,156
2013-2-10,33,30,28,32,28,24,100,91,82,29.94,29.49,29.27,7,3,0,15,9,22,0.38,8,Fog-Rain-Snow,65
2013-2-11,30,24,16,28,19,10,100,79,69,30.06,29.72,29.33,10,8,2,22,14,32,0.01,8,Rain-Snow,298
2013-2-12,33,22,12,21,15,8,88,74,59,30.06,29.94,29.82,10,10,8,15,7,,0.00,2,,225
2013-2-13,39,30,21,31,24,16,96,81,57,29.81,29.67,29.55,10,6,0,9,4,,0.15,7,Fog-Snow,218
2013-2-14,32,24,12,30,19,1,93,76,35,30.21,29.85,29.57,10,7,1,20,9,26,0.01,4,Snow,332
2013-2-15,16,10,3,1,0,-3,76,63,49,30.34,30.30,30.22,10,10,10,14,9,,0.00,1,,305
2013-2-16,19,10,1,4,1,-3,84,72,52,30.30,30.22,30.15,10,10,5,7,2,,0.00,3,,242
2013-2-17,30,16,3,20,12,1,88,70,63,30.15,29.93,29.64,10,10,9,21,10,30,0.00,2,,142
2013-2-18,32,20,8,28,14,1,86,74,67,29.83,29.65,29.50,10,7,2,24,11,36,0.00,6,Snow,277
2013-2-19,8,4,0,0,-5,-10,73,64,55,30.42,30.13,29.87,10,8,4,21,17,32,0.00,3,Snow,312
2013-2-20,16,4,-7,1,-5,-12,79,64,49,30.52,30.48,30.44,10,10,10,7,4,,0.00,0,Snow,341
2013-2-21,21,11,1,13,4,-3,85,68,53,30.50,30.36,30.14,10,10,10,12,4,,0.00,0,,57
2013-2-22,27,23,19,20,18,14,93,83,69,30.09,29.94,29.84,10,4,0,9,6,,0.08,8,Fog-Snow,4
2013-2-23,30,24,19,22,19,15,92,80,69,29.98,29.88,29.83,10,8,4,8,5,,0.00,7,,268
2013-2-24,34,21,8,20,14,6,95,79,54,30.13,30.06,29.94,10,7,2,7,1,,0.00,2,,164
2013-2-25,36,27,15,21,19,13,91,73,52,30.13,30.10,30.07,9,7,2,5,0,,0.00,4,,345
2013-2-26,35,24,12,25,18,10,93,80,64,30.08,29.99,29.89,10,5,1,13,4,20,0.00,2,,6
2013-2-27,39,34,26,25,22,20,81,72,50,30.05,29.94,29.88,10,10,10,15,9,29,0.00,3,,5
2013-2-28,30,27,23,20,18,14,72,67,63,30.25,30.17,30.06,10,10,10,13,8,16,0.00,8,,17